PWSweather.com
Personal Weather Stations
Station Observations
WESTON01
WestonSuperMareGB BS22 8RT

WestonSuperMareGB BS22 8RT

Lat: 51.351508, Lon: -2.933373

Elevation: 15

Station Type: Fine Offset WH1080

http://www.westonweather.co.uk

High Low Average
Temperature 81.2°F27.3°C 63.2°F17.3°C 69.6°F20.9°C
Dew Point 66.0°F18.9°C 59.6°F15.3°C 62.0°F16.7°C
Winds 12.0 mph 19.3 kmh 0.2 mph 0.3 kmh 5.0 mph W8.0 kmh W
Wind Gusts 16.4 mph26.4 kmh 1.8 mph2.9 kmh 7.0 mph11.3 kmh
Humidity 91% 56% 78%
Pressure 30.20 in1022.7 mb 30.14 in1020.7 mb -
Precipitation 0.00 in0.0 mm - -
Hour Temp Dew Point Humidity Winds Wind Gusts Pressure Precip Precip Rate Daily Precip Total
12:00 AM 63.8°F17.7°C 59.8°F15.4°C 87% 3.8 mph W6.1 kmh W 6.2 mph10.0 kmh 30.20 in1022.7 mb 0.00 in0.0 mm 0.00 in0.0 mm 0.00 in0.0 mm
12:05 AM 63.8°F17.7°C 59.8°F15.4°C 87% 4.0 mph W6.4 kmh W 6.2 mph10.0 kmh 30.20 in1022.7 mb 0.00 in0.0 mm 0.00 in0.0 mm 0.00 in0.0 mm
12:10 AM 63.8°F17.7°C 59.8°F15.4°C 87% 3.3 mph W5.3 kmh W 4.8 mph7.7 kmh 30.20 in1022.7 mb 0.00 in0.0 mm 0.00 in0.0 mm 0.00 in0.0 mm
12:15 AM 63.6°F17.6°C 59.6°F15.3°C 87% 3.3 mph WSW5.3 kmh WSW 6.5 mph10.5 kmh 30.20 in1022.7 mb 0.00 in0.0 mm 0.00 in0.0 mm 0.00 in0.0 mm
12:20 AM 63.6°F17.6°C 60.0°F15.6°C 88% 4.0 mph WSW6.4 kmh WSW 6.5 mph10.5 kmh 30.20 in1022.7 mb 0.00 in0.0 mm 0.00 in0.0 mm 0.00 in0.0 mm
12:25 AM 63.6°F17.6°C 60.0°F15.6°C 88% 4.2 mph W6.8 kmh W 5.4 mph8.7 kmh 30.20 in1022.7 mb 0.00 in0.0 mm 0.00 in0.0 mm 0.00 in0.0 mm
12:30 AM 63.6°F17.6°C 60.0°F15.6°C 88% 3.5 mph W5.6 kmh W 5.4 mph8.7 kmh 30.20 in1022.7 mb 0.00 in0.0 mm 0.00 in0.0 mm 0.00 in0.0 mm
12:35 AM 63.6°F17.6°C 60.0°F15.6°C 88% 1.9 mph WSW3.1 kmh WSW 4.2 mph6.8 kmh 30.20 in1022.7 mb 0.00 in0.0 mm 0.00 in0.0 mm 0.00 in0.0 mm
12:40 AM 63.4°F17.4°C 59.8°F15.4°C 88% 1.6 mph W2.6 kmh W 3.3 mph5.3 kmh 30.20 in1022.7 mb 0.00 in0.0 mm 0.00 in0.0 mm 0.00 in0.0 mm
12:45 AM 63.4°F17.4°C 59.8°F15.4°C 88% 2.1 mph W3.4 kmh W 4.2 mph6.8 kmh 30.20 in1022.7 mb 0.00 in0.0 mm 0.00 in0.0 mm 0.00 in0.0 mm
12:50 AM 63.4°F17.4°C 60.1°F15.6°C 89% 2.1 mph W3.4 kmh W 4.2 mph6.8 kmh 30.20 in1022.7 mb 0.00 in0.0 mm 0.00 in0.0 mm 0.00 in0.0 mm
12:55 AM 63.4°F17.4°C 60.1°F15.6°C 89% 1.5 mph W2.4 kmh W 3.3 mph5.3 kmh 30.20 in1022.7 mb 0.00 in0.0 mm 0.00 in0.0 mm 0.00 in0.0 mm
01:00 AM 63.2°F17.3°C 59.9°F15.5°C 89% 1.8 mph WSW2.9 kmh WSW 3.9 mph6.3 kmh 30.20 in1022.7 mb 0.00 in0.0 mm 0.00 in0.0 mm 0.00 in0.0 mm
01:05 AM 63.2°F17.3°C 59.9°F15.5°C 89% 2.5 mph WSW4.0 kmh WSW 3.9 mph6.3 kmh 30.20 in1022.7 mb 0.00 in0.0 mm 0.00 in0.0 mm 0.00 in0.0 mm
01:10 AM 63.4°F17.4°C 60.1°F15.6°C 89% 2.4 mph WSW3.9 kmh WSW 3.6 mph5.8 kmh 30.20 in1022.7 mb 0.00 in0.0 mm 0.00 in0.0 mm 0.00 in0.0 mm
01:15 AM 63.4°F17.4°C 60.1°F15.6°C 89% 1.8 mph WSW2.9 kmh WSW 3.3 mph5.3 kmh 30.17 in1021.7 mb 0.00 in0.0 mm 0.00 in0.0 mm 0.00 in0.0 mm
01:20 AM 63.4°F17.4°C 60.4°F15.8°C 90% 1.5 mph W2.4 kmh W 3.3 mph5.3 kmh 30.17 in1021.7 mb 0.00 in0.0 mm 0.00 in0.0 mm 0.00 in0.0 mm
01:25 AM 63.6°F17.6°C 60.6°F15.9°C 90% 0.8 mph W1.3 kmh W 3.0 mph4.8 kmh 30.17 in1021.7 mb 0.00 in0.0 mm 0.00 in0.0 mm 0.00 in0.0 mm
01:30 AM 63.6°F17.6°C 60.6°F15.9°C 90% 0.5 mph W0.8 kmh W 2.1 mph3.4 kmh 30.17 in1021.7 mb 0.00 in0.0 mm 0.00 in0.0 mm 0.00 in0.0 mm
01:35 AM 63.6°F17.6°C 60.6°F15.9°C 90% 0.6 mph W1.0 kmh W 2.1 mph3.4 kmh 30.17 in1021.7 mb 0.00 in0.0 mm 0.00 in0.0 mm 0.00 in0.0 mm
01:40 AM 63.6°F17.6°C 60.6°F15.9°C 90% 1.8 mph W2.9 kmh W 3.3 mph5.3 kmh 30.17 in1021.7 mb 0.00 in0.0 mm 0.00 in0.0 mm 0.00 in0.0 mm
01:45 AM 63.4°F17.4°C 60.4°F15.8°C 90% 2.7 mph W4.3 kmh W 3.6 mph5.8 kmh 30.17 in1021.7 mb 0.00 in0.0 mm 0.00 in0.0 mm 0.00 in0.0 mm
01:50 AM 63.6°F17.6°C 60.6°F15.9°C 90% 2.9 mph W4.7 kmh W 4.5 mph7.2 kmh 30.17 in1021.7 mb 0.00 in0.0 mm 0.00 in0.0 mm 0.00 in0.0 mm
01:55 AM 63.4°F17.4°C 60.4°F15.8°C 90% 3.0 mph WNW4.8 kmh WNW 4.5 mph7.2 kmh 30.17 in1021.7 mb 0.00 in0.0 mm 0.00 in0.0 mm 0.00 in0.0 mm
02:00 AM 63.6°F17.6°C 60.6°F15.9°C 90% 3.4 mph W5.5 kmh W 5.4 mph8.7 kmh 30.17 in1021.7 mb 0.00 in0.0 mm 0.00 in0.0 mm 0.00 in0.0 mm
02:05 AM 63.6°F17.6°C 60.6°F15.9°C 90% 3.5 mph W5.6 kmh W 5.4 mph8.7 kmh 30.17 in1021.7 mb 0.00 in0.0 mm 0.00 in0.0 mm 0.00 in0.0 mm
02:10 AM 63.6°F17.6°C 60.6°F15.9°C 90% 3.4 mph WNW5.5 kmh WNW 5.1 mph8.2 kmh 30.17 in1021.7 mb 0.00 in0.0 mm 0.00 in0.0 mm 0.00 in0.0 mm
02:15 AM 63.6°F17.6°C 60.6°F15.9°C 90% 2.2 mph NW3.5 kmh NW 5.1 mph8.2 kmh 30.17 in1021.7 mb 0.00 in0.0 mm 0.00 in0.0 mm 0.00 in0.0 mm
02:20 AM 63.6°F17.6°C 60.6°F15.9°C 90% 1.0 mph NW1.6 kmh NW 3.3 mph5.3 kmh 30.17 in1021.7 mb 0.00 in0.0 mm 0.00 in0.0 mm 0.00 in0.0 mm
02:25 AM 63.6°F17.6°C 60.6°F15.9°C 90% 1.4 mph W2.3 kmh W 3.6 mph5.8 kmh 30.17 in1021.7 mb 0.00 in0.0 mm 0.00 in0.0 mm 0.00 in0.0 mm
02:30 AM 63.6°F17.6°C 60.6°F15.9°C 90% 2.0 mph WNW3.2 kmh WNW 3.6 mph5.8 kmh 30.17 in1021.7 mb 0.00 in0.0 mm 0.00 in0.0 mm 0.00 in0.0 mm
02:35 AM 63.6°F17.6°C 60.6°F15.9°C 90% 1.5 mph WNW2.4 kmh WNW 3.6 mph5.8 kmh 30.17 in1021.7 mb 0.00 in0.0 mm 0.00 in0.0 mm 0.00 in0.0 mm
02:40 AM 63.4°F17.4°C 60.1°F15.6°C 89% 0.8 mph W1.3 kmh W 2.7 mph4.3 kmh 30.17 in1021.7 mb 0.00 in0.0 mm 0.00 in0.0 mm 0.00 in0.0 mm
02:45 AM 63.4°F17.4°C 60.4°F15.8°C 90% 1.6 mph W2.6 kmh W 3.3 mph5.3 kmh 30.17 in1021.7 mb 0.00 in0.0 mm 0.00 in0.0 mm 0.00 in0.0 mm
02:50 AM 63.6°F17.6°C 60.6°F15.9°C 90% 1.8 mph W2.9 kmh W 3.3 mph5.3 kmh 30.17 in1021.7 mb 0.00 in0.0 mm 0.00 in0.0 mm 0.00 in0.0 mm
02:55 AM 63.6°F17.6°C 60.6°F15.9°C 90% 2.7 mph NW4.3 kmh NW 4.8 mph7.7 kmh 30.17 in1021.7 mb 0.00 in0.0 mm 0.00 in0.0 mm 0.00 in0.0 mm
03:00 AM 64.0°F17.8°C 61.0°F16.1°C 90% 3.2 mph NW5.1 kmh NW 5.7 mph9.2 kmh 30.17 in1021.7 mb 0.00 in0.0 mm 0.00 in0.0 mm 0.00 in0.0 mm
03:05 AM 64.0°F17.8°C 61.0°F16.1°C 90% 2.3 mph WNW3.7 kmh WNW 5.7 mph9.2 kmh 30.17 in1021.7 mb 0.00 in0.0 mm 0.00 in0.0 mm 0.00 in0.0 mm
03:10 AM 64.1°F17.8°C 61.1°F16.2°C 90% 2.0 mph WNW3.2 kmh WNW 4.5 mph7.2 kmh 30.17 in1021.7 mb 0.00 in0.0 mm 0.00 in0.0 mm 0.00 in0.0 mm
03:15 AM 64.1°F17.8°C 61.1°F16.2°C 90% 2.7 mph WNW4.3 kmh WNW 5.1 mph8.2 kmh 30.17 in1021.7 mb 0.00 in0.0 mm 0.00 in0.0 mm 0.00 in0.0 mm
03:20 AM 64.3°F17.9°C 61.0°F16.1°C 89% 3.0 mph NW4.8 kmh NW 5.1 mph8.2 kmh 30.17 in1021.7 mb 0.00 in0.0 mm 0.00 in0.0 mm 0.00 in0.0 mm
03:25 AM 64.3°F17.9°C 61.0°F16.1°C 89% 3.6 mph NW5.8 kmh NW 5.7 mph9.2 kmh 30.17 in1021.7 mb 0.00 in0.0 mm 0.00 in0.0 mm 0.00 in0.0 mm
03:30 AM 64.5°F18.1°C 61.2°F16.2°C 89% 3.1 mph WNW5.0 kmh WNW 5.7 mph9.2 kmh 30.17 in1021.7 mb 0.00 in0.0 mm 0.00 in0.0 mm 0.00 in0.0 mm
03:35 AM 64.5°F18.1°C 61.2°F16.2°C 89% 3.3 mph W5.3 kmh W 6.0 mph9.7 kmh 30.17 in1021.7 mb 0.00 in0.0 mm 0.00 in0.0 mm 0.00 in0.0 mm
03:40 AM 64.5°F18.1°C 61.2°F16.2°C 89% 3.3 mph W5.3 kmh W 6.0 mph9.7 kmh 30.17 in1021.7 mb 0.00 in0.0 mm 0.00 in0.0 mm 0.00 in0.0 mm
03:45 AM 64.7°F18.2°C 61.4°F16.3°C 89% 3.5 mph NW5.6 kmh NW 6.0 mph9.7 kmh 30.17 in1021.7 mb 0.00 in0.0 mm 0.00 in0.0 mm 0.00 in0.0 mm
03:50 AM 64.7°F18.2°C 61.4°F16.3°C 89% 3.5 mph NW5.6 kmh NW 5.4 mph8.7 kmh 30.17 in1021.7 mb 0.00 in0.0 mm 0.00 in0.0 mm 0.00 in0.0 mm
03:55 AM 64.7°F18.2°C 61.0°F16.1°C 88% 3.0 mph NW4.8 kmh NW 5.4 mph8.7 kmh 30.17 in1021.7 mb 0.00 in0.0 mm 0.00 in0.0 mm 0.00 in0.0 mm
04:00 AM 64.8°F18.2°C 61.2°F16.2°C 88% 3.0 mph NW4.8 kmh NW 5.7 mph9.2 kmh 30.17 in1021.7 mb 0.00 in0.0 mm 0.00 in0.0 mm 0.00 in0.0 mm
04:05 AM 64.8°F18.2°C 61.2°F16.2°C 88% 2.9 mph NW4.7 kmh NW 5.7 mph9.2 kmh 30.17 in1021.7 mb 0.00 in0.0 mm 0.00 in0.0 mm 0.00 in0.0 mm
04:10 AM 64.8°F18.2°C 61.2°F16.2°C 88% 2.7 mph NW4.3 kmh NW 4.2 mph6.8 kmh 30.17 in1021.7 mb 0.00 in0.0 mm 0.00 in0.0 mm 0.00 in0.0 mm
04:15 AM 64.8°F18.2°C 61.2°F16.2°C 88% 2.7 mph NW4.3 kmh NW 4.2 mph6.8 kmh 30.17 in1021.7 mb 0.00 in0.0 mm 0.00 in0.0 mm 0.00 in0.0 mm
04:20 AM 64.8°F18.2°C 61.2°F16.2°C 88% 2.1 mph NW3.4 kmh NW 4.2 mph6.8 kmh 30.17 in1021.7 mb 0.00 in0.0 mm 0.00 in0.0 mm 0.00 in0.0 mm
04:25 AM 64.8°F18.2°C 61.2°F16.2°C 88% 0.8 mph NW1.3 kmh NW 3.3 mph5.3 kmh 30.17 in1021.7 mb 0.00 in0.0 mm 0.00 in0.0 mm 0.00 in0.0 mm
04:40 AM 64.8°F18.2°C 60.9°F16.1°C 87% 2.0 mph NW3.2 kmh NW 3.9 mph6.3 kmh 30.17 in1021.7 mb 0.00 in0.0 mm 0.00 in0.0 mm 0.00 in0.0 mm
04:45 AM 64.8°F18.2°C 60.9°F16.1°C 87% 1.1 mph NW1.8 kmh NW 3.6 mph5.8 kmh 30.17 in1021.7 mb 0.00 in0.0 mm 0.00 in0.0 mm 0.00 in0.0 mm
04:50 AM 64.8°F18.2°C 60.9°F16.1°C 87% 0.5 mph NNW0.8 kmh NNW 3.6 mph5.8 kmh 30.17 in1021.7 mb 0.00 in0.0 mm 0.00 in0.0 mm 0.00 in0.0 mm
04:55 AM 64.8°F18.2°C 60.9°F16.1°C 87% 0.4 mph N0.6 kmh N 1.8 mph2.9 kmh 30.17 in1021.7 mb 0.00 in0.0 mm 0.00 in0.0 mm 0.00 in0.0 mm
05:00 AM 64.8°F18.2°C 60.9°F16.1°C 87% 0.6 mph NNW1.0 kmh NNW 2.1 mph3.4 kmh 30.17 in1021.7 mb 0.00 in0.0 mm 0.00 in0.0 mm 0.00 in0.0 mm
05:05 AM 64.8°F18.2°C 60.9°F16.1°C 87% 0.9 mph NW1.4 kmh NW 2.7 mph4.3 kmh 30.17 in1021.7 mb 0.00 in0.0 mm 0.00 in0.0 mm 0.00 in0.0 mm
05:10 AM 65.0°F18.3°C 61.1°F16.2°C 87% 1.6 mph WNW2.6 kmh WNW 3.6 mph5.8 kmh 30.17 in1021.7 mb 0.00 in0.0 mm 0.00 in0.0 mm 0.00 in0.0 mm
05:15 AM 65.0°F18.3°C 61.1°F16.2°C 87% 1.5 mph WNW2.4 kmh WNW 3.6 mph5.8 kmh 30.17 in1021.7 mb 0.00 in0.0 mm 0.00 in0.0 mm 0.00 in0.0 mm
05:20 AM 65.0°F18.3°C 61.1°F16.2°C 87% 1.4 mph WNW2.3 kmh WNW 3.6 mph5.8 kmh 30.17 in1021.7 mb 0.00 in0.0 mm 0.00 in0.0 mm 0.00 in0.0 mm
05:25 AM 65.0°F18.3°C 61.1°F16.2°C 87% 1.5 mph W2.4 kmh W 3.6 mph5.8 kmh 30.17 in1021.7 mb 0.00 in0.0 mm 0.00 in0.0 mm 0.00 in0.0 mm
05:30 AM 65.0°F18.3°C 61.1°F16.2°C 87% 1.3 mph WNW2.1 kmh WNW 3.3 mph5.3 kmh 30.17 in1021.7 mb 0.00 in0.0 mm 0.00 in0.0 mm 0.00 in0.0 mm
05:35 AM 65.0°F18.3°C 60.7°F15.9°C 86% 1.9 mph WNW3.1 kmh WNW 3.9 mph6.3 kmh 30.17 in1021.7 mb 0.00 in0.0 mm 0.00 in0.0 mm 0.00 in0.0 mm
05:40 AM 65.2°F18.4°C 60.9°F16.1°C 86% 1.6 mph WNW2.6 kmh WNW 3.9 mph6.3 kmh 30.17 in1021.7 mb 0.00 in0.0 mm 0.00 in0.0 mm 0.00 in0.0 mm
05:45 AM 65.2°F18.4°C 60.9°F16.1°C 86% 1.1 mph W1.8 kmh W 3.9 mph6.3 kmh 30.17 in1021.7 mb 0.00 in0.0 mm 0.00 in0.0 mm 0.00 in0.0 mm
05:50 AM 65.2°F18.4°C 60.9°F16.1°C 86% 0.3 mph NW0.5 kmh NW 2.1 mph3.4 kmh 30.17 in1021.7 mb 0.00 in0.0 mm 0.00 in0.0 mm 0.00 in0.0 mm
05:55 AM 65.2°F18.4°C 60.9°F16.1°C 86% 0.7 mph WNW1.1 kmh WNW 3.3 mph5.3 kmh 30.17 in1021.7 mb 0.00 in0.0 mm 0.00 in0.0 mm 0.00 in0.0 mm
06:00 AM 65.4°F18.6°C 61.1°F16.2°C 86% 0.7 mph WNW1.1 kmh WNW 3.3 mph5.3 kmh 30.17 in1021.7 mb 0.00 in0.0 mm 0.00 in0.0 mm 0.00 in0.0 mm
06:05 AM 65.4°F18.6°C 61.1°F16.2°C 86% 0.2 mph NW0.3 kmh NW 2.7 mph4.3 kmh 30.17 in1021.7 mb 0.00 in0.0 mm 0.00 in0.0 mm 0.00 in0.0 mm
06:10 AM 65.6°F18.7°C 61.3°F16.3°C 86% 0.4 mph WNW0.6 kmh WNW 2.7 mph4.3 kmh 30.17 in1021.7 mb 0.00 in0.0 mm 0.00 in0.0 mm 0.00 in0.0 mm
06:15 AM 65.6°F18.7°C 61.3°F16.3°C 86% 0.5 mph W0.8 kmh W 2.7 mph4.3 kmh 30.20 in1022.7 mb 0.00 in0.0 mm 0.00 in0.0 mm 0.00 in0.0 mm
06:20 AM 65.8°F18.8°C 61.4°F16.3°C 86% 0.5 mph W0.8 kmh W 2.7 mph4.3 kmh 30.20 in1022.7 mb 0.00 in0.0 mm 0.00 in0.0 mm 0.00 in0.0 mm
06:25 AM 65.9°F18.8°C 61.6°F16.4°C 86% 1.1 mph WNW1.8 kmh WNW 3.0 mph4.8 kmh 30.20 in1022.7 mb 0.00 in0.0 mm 0.00 in0.0 mm 0.00 in0.0 mm
06:30 AM 65.9°F18.8°C 61.3°F16.3°C 85% 1.8 mph W2.9 kmh W 3.6 mph5.8 kmh 30.20 in1022.7 mb 0.00 in0.0 mm 0.00 in0.0 mm 0.00 in0.0 mm
06:35 AM 66.1°F18.9°C 61.5°F16.4°C 85% 1.7 mph W2.7 kmh W 3.6 mph5.8 kmh 30.20 in1022.7 mb 0.00 in0.0 mm 0.00 in0.0 mm 0.00 in0.0 mm
06:40 AM 66.3°F19.1°C 61.6°F16.4°C 85% 1.4 mph NW2.3 kmh NW 2.1 mph3.4 kmh 30.20 in1022.7 mb 0.00 in0.0 mm 0.00 in0.0 mm 0.00 in0.0 mm
06:45 AM 66.3°F19.1°C 61.6°F16.4°C 85% 1.4 mph WNW2.3 kmh WNW 3.3 mph5.3 kmh 30.20 in1022.7 mb 0.00 in0.0 mm 0.00 in0.0 mm 0.00 in0.0 mm
06:50 AM 66.5°F19.2°C 61.5°F16.4°C 84% 1.4 mph W2.3 kmh W 3.3 mph5.3 kmh 30.20 in1022.7 mb 0.00 in0.0 mm 0.00 in0.0 mm 0.00 in0.0 mm
06:55 AM 66.7°F19.3°C 61.7°F16.5°C 84% 0.9 mph W1.4 kmh W 2.7 mph4.3 kmh 30.20 in1022.7 mb 0.00 in0.0 mm 0.00 in0.0 mm 0.00 in0.0 mm
07:00 AM 66.7°F19.3°C 61.7°F16.5°C 84% 2.0 mph NW3.2 kmh NW 4.5 mph7.2 kmh 30.20 in1022.7 mb 0.00 in0.0 mm 0.00 in0.0 mm 0.00 in0.0 mm
07:05 AM 66.8°F19.3°C 61.5°F16.4°C 83% 2.8 mph NW4.5 kmh NW 4.5 mph7.2 kmh 30.20 in1022.7 mb 0.00 in0.0 mm 0.00 in0.0 mm 0.00 in0.0 mm
07:10 AM 66.8°F19.3°C 61.5°F16.4°C 83% 2.4 mph WNW3.9 kmh WNW 5.1 mph8.2 kmh 30.20 in1022.7 mb 0.00 in0.0 mm 0.00 in0.0 mm 0.00 in0.0 mm
07:15 AM 67.0°F19.4°C 61.7°F16.5°C 83% 2.4 mph NW3.9 kmh NW 5.1 mph8.2 kmh 30.20 in1022.7 mb 0.00 in0.0 mm 0.00 in0.0 mm 0.00 in0.0 mm
07:20 AM 67.0°F19.4°C 61.7°F16.5°C 83% 3.1 mph N5.0 kmh N 5.1 mph8.2 kmh 30.20 in1022.7 mb 0.00 in0.0 mm 0.00 in0.0 mm 0.00 in0.0 mm
07:25 AM 67.2°F19.6°C 61.5°F16.4°C 82% 2.6 mph NNW4.2 kmh NNW 5.1 mph8.2 kmh 30.20 in1022.7 mb 0.00 in0.0 mm 0.00 in0.0 mm 0.00 in0.0 mm
07:30 AM 67.2°F19.6°C 61.5°F16.4°C 82% 3.0 mph W4.8 kmh W 7.7 mph12.4 kmh 30.20 in1022.7 mb 0.00 in0.0 mm 0.00 in0.0 mm 0.00 in0.0 mm
07:35 AM 67.4°F19.7°C 61.7°F16.5°C 82% 4.0 mph W6.4 kmh W 7.7 mph12.4 kmh 30.20 in1022.7 mb 0.00 in0.0 mm 0.00 in0.0 mm 0.00 in0.0 mm
07:40 AM 67.4°F19.7°C 61.7°F16.5°C 82% 3.2 mph W5.1 kmh W 4.8 mph7.7 kmh 30.20 in1022.7 mb 0.00 in0.0 mm 0.00 in0.0 mm 0.00 in0.0 mm
07:45 AM 67.6°F19.8°C 61.9°F16.6°C 82% 3.2 mph WNW5.1 kmh WNW 4.5 mph7.2 kmh 30.20 in1022.7 mb 0.00 in0.0 mm 0.00 in0.0 mm 0.00 in0.0 mm
07:50 AM 67.7°F19.8°C 61.7°F16.5°C 81% 2.7 mph WNW4.3 kmh WNW 4.5 mph7.2 kmh 30.20 in1022.7 mb 0.00 in0.0 mm 0.00 in0.0 mm 0.00 in0.0 mm
07:55 AM 67.9°F19.9°C 61.9°F16.6°C 81% 2.2 mph WNW3.5 kmh WNW 3.9 mph6.3 kmh 30.20 in1022.7 mb 0.00 in0.0 mm 0.00 in0.0 mm 0.00 in0.0 mm
08:00 AM 68.1°F20.1°C 62.0°F16.7°C 81% 1.6 mph NW2.6 kmh NW 3.3 mph5.3 kmh 30.20 in1022.7 mb 0.00 in0.0 mm 0.00 in0.0 mm 0.00 in0.0 mm
08:05 AM 68.1°F20.1°C 62.0°F16.7°C 81% 2.0 mph NNW3.2 kmh NNW 5.4 mph8.7 kmh 30.20 in1022.7 mb 0.00 in0.0 mm 0.00 in0.0 mm 0.00 in0.0 mm
08:10 AM 68.1°F20.1°C 61.7°F16.5°C 80% 3.4 mph N5.5 kmh N 7.4 mph11.9 kmh 30.20 in1022.7 mb 0.00 in0.0 mm 0.00 in0.0 mm 0.00 in0.0 mm
08:15 AM 68.1°F20.1°C 61.7°F16.5°C 80% 3.9 mph N6.3 kmh N 7.4 mph11.9 kmh 30.20 in1022.7 mb 0.00 in0.0 mm 0.00 in0.0 mm 0.00 in0.0 mm
08:20 AM 68.3°F20.2°C 61.9°F16.6°C 80% 3.8 mph NW6.1 kmh NW 7.4 mph11.9 kmh 30.20 in1022.7 mb 0.00 in0.0 mm 0.00 in0.0 mm 0.00 in0.0 mm
08:25 AM 68.3°F20.2°C 61.9°F16.6°C 80% 3.6 mph NW5.8 kmh NW 5.1 mph8.2 kmh 30.20 in1022.7 mb 0.00 in0.0 mm 0.00 in0.0 mm 0.00 in0.0 mm
08:30 AM 68.3°F20.2°C 61.9°F16.6°C 80% 2.7 mph NNW4.3 kmh NNW 4.8 mph7.7 kmh 30.20 in1022.7 mb 0.00 in0.0 mm 0.00 in0.0 mm 0.00 in0.0 mm
08:35 AM 68.4°F20.2°C 62.0°F16.7°C 80% 2.1 mph NW3.4 kmh NW 4.8 mph7.7 kmh 30.20 in1022.7 mb 0.00 in0.0 mm 0.00 in0.0 mm 0.00 in0.0 mm
08:40 AM 68.6°F20.3°C 61.9°F16.6°C 79% 1.8 mph NNW2.9 kmh NNW 3.3 mph5.3 kmh 30.20 in1022.7 mb 0.00 in0.0 mm 0.00 in0.0 mm 0.00 in0.0 mm
08:45 AM 68.8°F20.4°C 62.0°F16.7°C 79% 2.0 mph NNW3.2 kmh NNW 3.6 mph5.8 kmh 30.20 in1022.7 mb 0.00 in0.0 mm 0.00 in0.0 mm 0.00 in0.0 mm
08:50 AM 69.2°F20.7°C 62.4°F16.9°C 79% 2.9 mph N4.7 kmh N 4.8 mph7.7 kmh 30.20 in1022.7 mb 0.00 in0.0 mm 0.00 in0.0 mm 0.00 in0.0 mm
08:55 AM 69.3°F20.7°C 62.2°F16.8°C 78% 3.8 mph NNW6.1 kmh NNW 4.8 mph7.7 kmh 30.20 in1022.7 mb 0.00 in0.0 mm 0.00 in0.0 mm 0.00 in0.0 mm
09:00 AM 69.7°F20.9°C 62.5°F16.9°C 78% 2.7 mph NW4.3 kmh NW 4.8 mph7.7 kmh 30.20 in1022.7 mb 0.00 in0.0 mm 0.00 in0.0 mm 0.00 in0.0 mm
09:05 AM 70.3°F21.3°C 63.1°F17.3°C 78% 0.9 mph N1.4 kmh N 3.3 mph5.3 kmh 30.20 in1022.7 mb 0.00 in0.0 mm 0.00 in0.0 mm 0.00 in0.0 mm
09:10 AM 71.2°F21.8°C 63.6°F17.6°C 77% 0.6 mph NW1.0 kmh NW 2.1 mph3.4 kmh 30.20 in1022.7 mb 0.00 in0.0 mm 0.00 in0.0 mm 0.00 in0.0 mm
09:15 AM 71.9°F22.2°C 64.3°F17.9°C 77% 2.0 mph W3.2 kmh W 5.1 mph8.2 kmh 30.20 in1022.7 mb 0.00 in0.0 mm 0.00 in0.0 mm 0.00 in0.0 mm
09:20 AM 72.6°F22.6°C 64.2°F17.9°C 75% 2.3 mph WNW3.7 kmh WNW 5.1 mph8.2 kmh 30.20 in1022.7 mb 0.00 in0.0 mm 0.00 in0.0 mm 0.00 in0.0 mm
09:25 AM 73.3°F22.9°C 64.5°F18.1°C 74% 2.8 mph NW4.5 kmh NW 5.4 mph8.7 kmh 30.20 in1022.7 mb 0.00 in0.0 mm 0.00 in0.0 mm 0.00 in0.0 mm
09:30 AM 73.8°F23.2°C 64.6°F18.1°C 73% 4.1 mph NW6.6 kmh NW 5.4 mph8.7 kmh 30.20 in1022.7 mb 0.00 in0.0 mm 0.00 in0.0 mm 0.00 in0.0 mm
09:35 AM 74.0°F23.3°C 64.0°F17.8°C 71% 3.7 mph NNW6.0 kmh NNW 5.4 mph8.7 kmh 30.20 in1022.7 mb 0.00 in0.0 mm 0.00 in0.0 mm 0.00 in0.0 mm
09:40 AM 74.0°F23.3°C 64.0°F17.8°C 71% 3.0 mph NNW4.8 kmh NNW 5.1 mph8.2 kmh 30.20 in1022.7 mb 0.00 in0.0 mm 0.00 in0.0 mm 0.00 in0.0 mm
09:45 AM 74.6°F23.7°C 64.1°F17.8°C 70% 3.2 mph N5.1 kmh N 5.1 mph8.2 kmh 30.20 in1022.7 mb 0.00 in0.0 mm 0.00 in0.0 mm 0.00 in0.0 mm
09:50 AM 74.9°F23.8°C 64.5°F18.1°C 70% 2.5 mph N4.0 kmh N 5.1 mph8.2 kmh 30.20 in1022.7 mb 0.00 in0.0 mm 0.00 in0.0 mm 0.00 in0.0 mm
09:55 AM 75.7°F24.3°C 65.2°F18.4°C 70% 1.3 mph NNE2.1 kmh NNE 3.9 mph6.3 kmh 30.20 in1022.7 mb 0.00 in0.0 mm 0.00 in0.0 mm 0.00 in0.0 mm
10:00 AM 76.4°F24.7°C 65.4°F18.6°C 69% 1.1 mph NE1.8 kmh NE 3.0 mph4.8 kmh 30.20 in1022.7 mb 0.00 in0.0 mm 0.00 in0.0 mm 0.00 in0.0 mm
10:05 AM 76.9°F24.9°C 65.5°F18.6°C 68% 1.0 mph E1.6 kmh E 2.7 mph4.3 kmh 30.20 in1022.7 mb 0.00 in0.0 mm 0.00 in0.0 mm 0.00 in0.0 mm
10:10 AM 77.3°F25.2°C 65.5°F18.6°C 67% 1.2 mph WSW1.9 kmh WSW 3.9 mph6.3 kmh 30.20 in1022.7 mb 0.00 in0.0 mm 0.00 in0.0 mm 0.00 in0.0 mm
10:15 AM 77.4°F25.2°C 65.6°F18.7°C 67% 2.1 mph WSW3.4 kmh WSW 4.2 mph6.8 kmh 30.20 in1022.7 mb 0.00 in0.0 mm 0.00 in0.0 mm 0.00 in0.0 mm
10:20 AM 78.0°F25.6°C 65.7°F18.7°C 66% 2.6 mph WSW4.2 kmh WSW 4.2 mph6.8 kmh 30.20 in1022.7 mb 0.00 in0.0 mm 0.00 in0.0 mm 0.00 in0.0 mm
10:25 AM 78.2°F25.7°C 65.4°F18.6°C 65% 3.0 mph SW4.8 kmh SW 5.7 mph9.2 kmh 30.20 in1022.7 mb 0.00 in0.0 mm 0.00 in0.0 mm 0.00 in0.0 mm
10:30 AM 78.3°F25.7°C 65.2°F18.4°C 64% 3.5 mph WSW5.6 kmh WSW 5.7 mph9.2 kmh 30.20 in1022.7 mb 0.00 in0.0 mm 0.00 in0.0 mm 0.00 in0.0 mm
10:35 AM 78.5°F25.8°C 65.3°F18.5°C 64% 3.4 mph WSW5.5 kmh WSW 7.1 mph11.4 kmh 30.20 in1022.7 mb 0.00 in0.0 mm 0.00 in0.0 mm 0.00 in0.0 mm
10:40 AM 78.5°F25.8°C 65.3°F18.5°C 64% 3.6 mph WNW5.8 kmh WNW 7.1 mph11.4 kmh 30.20 in1022.7 mb 0.00 in0.0 mm 0.00 in0.0 mm 0.00 in0.0 mm
10:45 AM 78.3°F25.7°C 65.2°F18.4°C 64% 4.1 mph NW6.6 kmh NW 7.1 mph11.4 kmh 30.20 in1022.7 mb 0.00 in0.0 mm 0.00 in0.0 mm 0.00 in0.0 mm
10:50 AM 78.9°F26.1°C 65.7°F18.7°C 64% 4.1 mph NW6.6 kmh NW 5.1 mph8.2 kmh 30.20 in1022.7 mb 0.00 in0.0 mm 0.00 in0.0 mm 0.00 in0.0 mm
10:55 AM 79.3°F26.3°C 66.0°F18.9°C 64% 4.4 mph WNW7.1 kmh WNW 5.4 mph8.7 kmh 30.20 in1022.7 mb 0.00 in0.0 mm 0.00 in0.0 mm 0.00 in0.0 mm
11:00 AM 79.3°F26.3°C 65.6°F18.7°C 63% 4.6 mph WNW7.4 kmh WNW 5.7 mph9.2 kmh 30.20 in1022.7 mb 0.00 in0.0 mm 0.00 in0.0 mm 0.00 in0.0 mm
11:05 AM 79.4°F26.3°C 65.7°F18.7°C 63% 4.4 mph WNW7.1 kmh WNW 5.7 mph9.2 kmh 30.20 in1022.7 mb 0.00 in0.0 mm 0.00 in0.0 mm 0.00 in0.0 mm
11:10 AM 79.4°F26.3°C 65.3°F18.5°C 62% 4.3 mph NW6.9 kmh NW 7.4 mph11.9 kmh 30.20 in1022.7 mb 0.00 in0.0 mm 0.00 in0.0 mm 0.00 in0.0 mm
11:15 AM 79.6°F26.4°C 65.4°F18.6°C 62% 3.9 mph WNW6.3 kmh WNW 7.4 mph11.9 kmh 30.17 in1021.7 mb 0.00 in0.0 mm 0.00 in0.0 mm 0.00 in0.0 mm
11:20 AM 79.6°F26.4°C 65.0°F18.3°C 61% 3.8 mph W6.1 kmh W 5.4 mph8.7 kmh 30.17 in1021.7 mb 0.00 in0.0 mm 0.00 in0.0 mm 0.00 in0.0 mm
11:25 AM 79.8°F26.6°C 65.1°F18.4°C 61% 4.1 mph WSW6.6 kmh WSW 5.7 mph9.2 kmh 30.17 in1021.7 mb 0.00 in0.0 mm 0.00 in0.0 mm 0.00 in0.0 mm
11:30 AM 79.6°F26.4°C 65.0°F18.3°C 61% 4.2 mph WSW6.8 kmh WSW 7.7 mph12.4 kmh 30.17 in1021.7 mb 0.00 in0.0 mm 0.00 in0.0 mm 0.00 in0.0 mm
11:35 AM 79.4°F26.3°C 64.8°F18.2°C 61% 4.8 mph WSW7.7 kmh WSW 7.7 mph12.4 kmh 30.17 in1021.7 mb 0.00 in0.0 mm 0.00 in0.0 mm 0.00 in0.0 mm
11:40 AM 79.4°F26.3°C 64.3°F17.9°C 60% 5.4 mph WSW8.7 kmh WSW 7.7 mph12.4 kmh 30.17 in1021.7 mb 0.00 in0.0 mm 0.00 in0.0 mm 0.00 in0.0 mm
11:45 AM 79.4°F26.3°C 64.3°F17.9°C 60% 5.4 mph W8.7 kmh W 8.3 mph13.4 kmh 30.17 in1021.7 mb 0.00 in0.0 mm 0.00 in0.0 mm 0.00 in0.0 mm
11:50 AM 79.8°F26.6°C 64.7°F18.2°C 60% 5.6 mph W9.0 kmh W 8.3 mph13.4 kmh 30.17 in1021.7 mb 0.00 in0.0 mm 0.00 in0.0 mm 0.00 in0.0 mm
11:55 AM 80.3°F26.8°C 65.2°F18.4°C 60% 4.8 mph W7.7 kmh W 8.3 mph13.4 kmh 30.17 in1021.7 mb 0.00 in0.0 mm 0.00 in0.0 mm 0.00 in0.0 mm
12:00 PM 80.9°F27.2°C 65.7°F18.7°C 60% 3.9 mph WNW6.3 kmh WNW 5.1 mph8.2 kmh 30.17 in1021.7 mb 0.00 in0.0 mm 0.00 in0.0 mm 0.00 in0.0 mm
12:05 PM 80.7°F27.1°C 65.0°F18.3°C 59% 5.2 mph W8.4 kmh W 7.7 mph12.4 kmh 30.17 in1021.7 mb 0.00 in0.0 mm 0.00 in0.0 mm 0.00 in0.0 mm
12:10 PM 80.9°F27.2°C 65.2°F18.4°C 59% 6.6 mph W10.6 kmh W 8.6 mph13.8 kmh 30.17 in1021.7 mb 0.00 in0.0 mm 0.00 in0.0 mm 0.00 in0.0 mm
12:15 PM 80.7°F27.1°C 65.0°F18.3°C 59% 7.0 mph W11.3 kmh W 9.5 mph15.3 kmh 30.17 in1021.7 mb 0.00 in0.0 mm 0.00 in0.0 mm 0.00 in0.0 mm
12:20 PM 80.5°F26.9°C 64.9°F18.3°C 59% 6.5 mph W10.5 kmh W 9.5 mph15.3 kmh 30.17 in1021.7 mb 0.00 in0.0 mm 0.00 in0.0 mm 0.00 in0.0 mm
12:25 PM 80.0°F26.7°C 64.4°F18.0°C 59% 6.8 mph W10.9 kmh W 10.1 mph16.3 kmh 30.17 in1021.7 mb 0.00 in0.0 mm 0.00 in0.0 mm 0.00 in0.0 mm
12:30 PM 79.8°F26.6°C 64.2°F17.9°C 59% 7.6 mph W12.2 kmh W 10.1 mph16.3 kmh 30.17 in1021.7 mb 0.00 in0.0 mm 0.00 in0.0 mm 0.00 in0.0 mm
12:35 PM 79.8°F26.6°C 64.2°F17.9°C 59% 6.9 mph WSW11.1 kmh WSW 10.1 mph16.3 kmh 30.17 in1021.7 mb 0.00 in0.0 mm 0.00 in0.0 mm 0.00 in0.0 mm
12:40 PM 79.6°F26.4°C 64.0°F17.8°C 59% 6.1 mph WSW9.8 kmh WSW 10.1 mph16.3 kmh 30.17 in1021.7 mb 0.00 in0.0 mm 0.00 in0.0 mm 0.00 in0.0 mm
12:45 PM 79.6°F26.4°C 64.0°F17.8°C 59% 6.2 mph WSW10.0 kmh WSW 8.0 mph12.9 kmh 30.17 in1021.7 mb 0.00 in0.0 mm 0.00 in0.0 mm 0.00 in0.0 mm
12:50 PM 79.8°F26.6°C 64.2°F17.9°C 59% 6.2 mph WSW10.0 kmh WSW 10.7 mph17.2 kmh 30.17 in1021.7 mb 0.00 in0.0 mm 0.00 in0.0 mm 0.00 in0.0 mm
12:55 PM 80.0°F26.7°C 63.9°F17.7°C 58% 5.6 mph WSW9.0 kmh WSW 10.7 mph17.2 kmh 30.17 in1021.7 mb 0.00 in0.0 mm 0.00 in0.0 mm 0.00 in0.0 mm
01:00 PM 80.2°F26.8°C 64.0°F17.8°C 58% 4.9 mph WSW7.9 kmh WSW 7.4 mph11.9 kmh 30.17 in1021.7 mb 0.00 in0.0 mm 0.00 in0.0 mm 0.00 in0.0 mm
01:05 PM 80.9°F27.2°C 64.7°F18.2°C 58% 4.9 mph W7.9 kmh W 6.5 mph10.5 kmh 30.17 in1021.7 mb 0.00 in0.0 mm 0.00 in0.0 mm 0.00 in0.0 mm
01:10 PM 81.2°F27.3°C 64.5°F18.1°C 57% 6.8 mph WSW10.9 kmh WSW 10.4 mph16.7 kmh 30.17 in1021.7 mb 0.00 in0.0 mm 0.00 in0.0 mm 0.00 in0.0 mm
01:15 PM 81.2°F27.3°C 64.5°F18.1°C 57% 7.5 mph WSW12.1 kmh WSW 10.4 mph16.7 kmh 30.17 in1021.7 mb 0.00 in0.0 mm 0.00 in0.0 mm 0.00 in0.0 mm
01:20 PM 81.2°F27.3°C 64.0°F17.8°C 56% 6.9 mph WSW11.1 kmh WSW 8.9 mph14.3 kmh 30.17 in1021.7 mb 0.00 in0.0 mm 0.00 in0.0 mm 0.00 in0.0 mm
01:25 PM 80.9°F27.2°C 64.2°F17.9°C 57% 6.5 mph WSW10.5 kmh WSW 8.9 mph14.3 kmh 30.17 in1021.7 mb 0.00 in0.0 mm 0.00 in0.0 mm 0.00 in0.0 mm
01:30 PM 80.2°F26.8°C 64.0°F17.8°C 58% 9.0 mph W14.5 kmh W 14.6 mph23.5 kmh 30.17 in1021.7 mb 0.00 in0.0 mm 0.00 in0.0 mm 0.00 in0.0 mm
01:35 PM 78.9°F26.1°C 63.3°F17.4°C 59% 9.4 mph W15.1 kmh W 14.6 mph23.5 kmh 30.17 in1021.7 mb 0.00 in0.0 mm 0.00 in0.0 mm 0.00 in0.0 mm
01:40 PM 78.0°F25.6°C 62.5°F16.9°C 59% 7.9 mph W12.7 kmh W 13.7 mph22.0 kmh 30.17 in1021.7 mb 0.00 in0.0 mm 0.00 in0.0 mm 0.00 in0.0 mm
01:45 PM 77.3°F25.2°C 62.3°F16.8°C 60% 7.1 mph W11.4 kmh W 10.1 mph16.3 kmh 30.17 in1021.7 mb 0.00 in0.0 mm 0.00 in0.0 mm 0.00 in0.0 mm
01:50 PM 76.4°F24.7°C 61.5°F16.4°C 60% 8.8 mph W14.2 kmh W 14.3 mph23.0 kmh 30.17 in1021.7 mb 0.00 in0.0 mm 0.00 in0.0 mm 0.00 in0.0 mm
01:55 PM 76.4°F24.7°C 61.9°F16.6°C 61% 8.5 mph W13.7 kmh W 14.3 mph23.0 kmh 30.17 in1021.7 mb 0.00 in0.0 mm 0.00 in0.0 mm 0.00 in0.0 mm
02:00 PM 76.0°F24.4°C 61.6°F16.4°C 61% 7.6 mph W12.2 kmh W 10.1 mph16.3 kmh 30.17 in1021.7 mb 0.00 in0.0 mm 0.00 in0.0 mm 0.00 in0.0 mm
02:05 PM 75.8°F24.3°C 61.9°F16.6°C 62% 7.4 mph W11.9 kmh W 10.7 mph17.2 kmh 30.17 in1021.7 mb 0.00 in0.0 mm 0.00 in0.0 mm 0.00 in0.0 mm
02:10 PM 75.8°F24.3°C 61.9°F16.6°C 62% 7.4 mph W11.9 kmh W 10.7 mph17.2 kmh 30.17 in1021.7 mb 0.00 in0.0 mm 0.00 in0.0 mm 0.00 in0.0 mm
02:15 PM 75.5°F24.2°C 62.0°F16.7°C 63% 7.1 mph W11.4 kmh W 10.1 mph16.3 kmh 30.17 in1021.7 mb 0.00 in0.0 mm 0.00 in0.0 mm 0.00 in0.0 mm
02:20 PM 75.1°F23.9°C 61.7°F16.5°C 63% 7.5 mph W12.1 kmh W 11.3 mph18.2 kmh 30.17 in1021.7 mb 0.00 in0.0 mm 0.00 in0.0 mm 0.00 in0.0 mm
02:25 PM 74.9°F23.8°C 61.9°F16.6°C 64% 7.9 mph WSW12.7 kmh WSW 11.3 mph18.2 kmh 30.17 in1021.7 mb 0.00 in0.0 mm 0.00 in0.0 mm 0.00 in0.0 mm
02:30 PM 74.6°F23.7°C 61.6°F16.4°C 64% 6.6 mph W10.6 kmh W 8.9 mph14.3 kmh 30.17 in1021.7 mb 0.00 in0.0 mm 0.00 in0.0 mm 0.00 in0.0 mm
02:35 PM 74.4°F23.6°C 61.4°F16.3°C 64% 6.8 mph W10.9 kmh W 8.9 mph14.3 kmh 30.17 in1021.7 mb 0.00 in0.0 mm 0.00 in0.0 mm 0.00 in0.0 mm
02:40 PM 74.2°F23.4°C 61.7°F16.5°C 65% 7.0 mph W11.3 kmh W 9.5 mph15.3 kmh 30.17 in1021.7 mb 0.00 in0.0 mm 0.00 in0.0 mm 0.00 in0.0 mm
02:45 PM 74.0°F23.3°C 61.5°F16.4°C 65% 6.9 mph W11.1 kmh W 9.5 mph15.3 kmh 30.17 in1021.7 mb 0.00 in0.0 mm 0.00 in0.0 mm 0.00 in0.0 mm
02:50 PM 73.8°F23.2°C 61.3°F16.3°C 65% 6.1 mph NW9.8 kmh NW 9.5 mph15.3 kmh 30.17 in1021.7 mb 0.00 in0.0 mm 0.00 in0.0 mm 0.00 in0.0 mm
02:55 PM 73.8°F23.2°C 61.3°F16.3°C 65% 5.8 mph NW9.3 kmh NW 7.4 mph11.9 kmh 30.17 in1021.7 mb 0.00 in0.0 mm 0.00 in0.0 mm 0.00 in0.0 mm
03:00 PM 74.0°F23.3°C 61.5°F16.4°C 65% 5.0 mph WSW8.0 kmh WSW 7.1 mph11.4 kmh 30.17 in1021.7 mb 0.00 in0.0 mm 0.00 in0.0 mm 0.00 in0.0 mm
03:05 PM 73.8°F23.2°C 61.8°F16.6°C 66% 3.3 mph SW5.3 kmh SW 5.7 mph9.2 kmh 30.17 in1021.7 mb 0.00 in0.0 mm 0.00 in0.0 mm 0.00 in0.0 mm
03:10 PM 73.8°F23.2°C 61.8°F16.6°C 66% 2.1 mph SW3.4 kmh SW 5.7 mph9.2 kmh 30.17 in1021.7 mb 0.00 in0.0 mm 0.00 in0.0 mm 0.00 in0.0 mm
03:15 PM 74.0°F23.3°C 61.9°F16.6°C 66% 2.5 mph W4.0 kmh W 5.4 mph8.7 kmh 30.17 in1021.7 mb 0.00 in0.0 mm 0.00 in0.0 mm 0.00 in0.0 mm
03:20 PM 74.4°F23.6°C 62.3°F16.8°C 66% 5.3 mph W8.5 kmh W 14.0 mph22.5 kmh 30.17 in1021.7 mb 0.00 in0.0 mm 0.00 in0.0 mm 0.00 in0.0 mm
03:25 PM 74.0°F23.3°C 61.9°F16.6°C 66% 8.4 mph W13.5 kmh W 14.0 mph22.5 kmh 30.17 in1021.7 mb 0.00 in0.0 mm 0.00 in0.0 mm 0.00 in0.0 mm
03:30 PM 73.1°F22.8°C 61.5°F16.4°C 67% 8.1 mph WSW13.0 kmh WSW 12.5 mph20.1 kmh 30.17 in1021.7 mb 0.00 in0.0 mm 0.00 in0.0 mm 0.00 in0.0 mm
03:35 PM 72.8°F22.7°C 61.2°F16.2°C 67% 8.1 mph W13.0 kmh W 10.4 mph16.7 kmh 30.17 in1021.7 mb 0.00 in0.0 mm 0.00 in0.0 mm 0.00 in0.0 mm
03:40 PM 72.4°F22.4°C 61.2°F16.2°C 68% 7.1 mph W11.4 kmh W 10.4 mph16.7 kmh 30.17 in1021.7 mb 0.00 in0.0 mm 0.00 in0.0 mm 0.00 in0.0 mm
03:45 PM 72.2°F22.3°C 61.1°F16.2°C 68% 6.0 mph W9.7 kmh W 8.3 mph13.4 kmh 30.17 in1021.7 mb 0.00 in0.0 mm 0.00 in0.0 mm 0.00 in0.0 mm
03:50 PM 72.2°F22.3°C 61.1°F16.2°C 68% 7.4 mph W11.9 kmh W 10.1 mph16.3 kmh 30.17 in1021.7 mb 0.00 in0.0 mm 0.00 in0.0 mm 0.00 in0.0 mm
03:55 PM 72.1°F22.3°C 61.3°F16.3°C 69% 7.9 mph W12.7 kmh W 10.7 mph17.2 kmh 30.17 in1021.7 mb 0.00 in0.0 mm 0.00 in0.0 mm 0.00 in0.0 mm
04:00 PM 72.2°F22.3°C 61.5°F16.4°C 69% 7.3 mph WSW11.7 kmh WSW 10.7 mph17.2 kmh 30.17 in1021.7 mb 0.00 in0.0 mm 0.00 in0.0 mm 0.00 in0.0 mm
04:05 PM 72.2°F22.3°C 61.5°F16.4°C 69% 6.0 mph W9.7 kmh W 9.5 mph15.3 kmh 30.17 in1021.7 mb 0.00 in0.0 mm 0.00 in0.0 mm 0.00 in0.0 mm
04:10 PM 72.4°F22.4°C 61.7°F16.5°C 69% 6.2 mph WSW10.0 kmh WSW 9.8 mph15.8 kmh 30.17 in1021.7 mb 0.00 in0.0 mm 0.00 in0.0 mm 0.00 in0.0 mm
04:15 PM 72.4°F22.4°C 61.7°F16.5°C 69% 8.2 mph W13.2 kmh W 10.4 mph16.7 kmh 30.17 in1021.7 mb 0.00 in0.0 mm 0.00 in0.0 mm 0.00 in0.0 mm
04:20 PM 72.2°F22.3°C 61.5°F16.4°C 69% 8.7 mph W14.0 kmh W 11.3 mph18.2 kmh 30.17 in1021.7 mb 0.00 in0.0 mm 0.00 in0.0 mm 0.00 in0.0 mm
04:25 PM 72.2°F22.3°C 61.5°F16.4°C 69% 8.7 mph W14.0 kmh W 14.0 mph22.5 kmh 30.17 in1021.7 mb 0.00 in0.0 mm 0.00 in0.0 mm 0.00 in0.0 mm
04:30 PM 72.1°F22.3°C 61.7°F16.5°C 70% 9.3 mph W15.0 kmh W 14.0 mph22.5 kmh 30.17 in1021.7 mb 0.00 in0.0 mm 0.00 in0.0 mm 0.00 in0.0 mm
04:35 PM 71.9°F22.2°C 61.6°F16.4°C 70% 7.7 mph W12.4 kmh W 12.8 mph20.6 kmh 30.17 in1021.7 mb 0.00 in0.0 mm 0.00 in0.0 mm 0.00 in0.0 mm
04:40 PM 72.6°F22.6°C 62.2°F16.8°C 70% 6.2 mph W10.0 kmh W 10.1 mph16.3 kmh 30.17 in1021.7 mb 0.00 in0.0 mm 0.00 in0.0 mm 0.00 in0.0 mm
04:45 PM 72.9°F22.7°C 62.6°F17.0°C 70% 7.0 mph W11.3 kmh W 11.6 mph18.7 kmh 30.17 in1021.7 mb 0.00 in0.0 mm 0.00 in0.0 mm 0.00 in0.0 mm
04:50 PM 72.9°F22.7°C 62.6°F17.0°C 70% 8.3 mph W13.4 kmh W 11.6 mph18.7 kmh 30.17 in1021.7 mb 0.00 in0.0 mm 0.00 in0.0 mm 0.00 in0.0 mm
04:55 PM 72.8°F22.7°C 62.4°F16.9°C 70% 9.5 mph W15.3 kmh W 14.6 mph23.5 kmh 30.17 in1021.7 mb 0.00 in0.0 mm 0.00 in0.0 mm 0.00 in0.0 mm
05:00 PM 72.6°F22.6°C 62.2°F16.8°C 70% 9.7 mph WSW15.6 kmh WSW 14.6 mph23.5 kmh 30.17 in1021.7 mb 0.00 in0.0 mm 0.00 in0.0 mm 0.00 in0.0 mm
05:05 PM 72.4°F22.4°C 62.1°F16.7°C 70% 9.7 mph WSW15.6 kmh WSW 14.6 mph23.5 kmh 30.17 in1021.7 mb 0.00 in0.0 mm 0.00 in0.0 mm 0.00 in0.0 mm
05:10 PM 72.8°F22.7°C 62.4°F16.9°C 70% 10.7 mph WSW17.2 kmh WSW 14.0 mph22.5 kmh 30.17 in1021.7 mb 0.00 in0.0 mm 0.00 in0.0 mm 0.00 in0.0 mm
05:15 PM 72.9°F22.7°C 62.6°F17.0°C 70% 12.0 mph W19.3 kmh W 16.4 mph26.4 kmh 30.17 in1021.7 mb 0.00 in0.0 mm 0.00 in0.0 mm 0.00 in0.0 mm
05:20 PM 72.4°F22.4°C 62.5°F16.9°C 71% 10.3 mph W16.6 kmh W 16.4 mph26.4 kmh 30.17 in1021.7 mb 0.00 in0.0 mm 0.00 in0.0 mm 0.00 in0.0 mm
05:25 PM 72.6°F22.6°C 62.6°F17.0°C 71% 10.1 mph WSW16.3 kmh WSW 13.4 mph21.6 kmh 30.17 in1021.7 mb 0.00 in0.0 mm 0.00 in0.0 mm 0.00 in0.0 mm
05:30 PM 72.2°F22.3°C 62.3°F16.8°C 71% 10.0 mph W16.1 kmh W 13.4 mph21.6 kmh 30.17 in1021.7 mb 0.00 in0.0 mm 0.00 in0.0 mm 0.00 in0.0 mm
05:35 PM 71.9°F22.2°C 62.0°F16.7°C 71% 9.8 mph W15.8 kmh W 13.7 mph22.0 kmh 30.17 in1021.7 mb 0.00 in0.0 mm 0.00 in0.0 mm 0.00 in0.0 mm
05:40 PM 71.3°F21.8°C 61.4°F16.3°C 71% 10.3 mph W16.6 kmh W 14.3 mph23.0 kmh 30.17 in1021.7 mb 0.00 in0.0 mm 0.00 in0.0 mm 0.00 in0.0 mm
05:45 PM 71.3°F21.8°C 61.8°F16.6°C 72% 11.1 mph W17.9 kmh W 14.3 mph23.0 kmh 30.17 in1021.7 mb 0.00 in0.0 mm 0.00 in0.0 mm 0.00 in0.0 mm
05:50 PM 71.5°F21.9°C 62.4°F16.9°C 73% 9.2 mph W14.8 kmh W 13.1 mph21.1 kmh 30.17 in1021.7 mb 0.00 in0.0 mm 0.00 in0.0 mm 0.00 in0.0 mm
05:55 PM 71.7°F22.1°C 62.6°F17.0°C 73% 9.5 mph WSW15.3 kmh WSW 14.9 mph24.0 kmh 30.17 in1021.7 mb 0.00 in0.0 mm 0.00 in0.0 mm 0.00 in0.0 mm
06:00 PM 71.9°F22.2°C 62.7°F17.1°C 73% 10.0 mph WSW16.1 kmh WSW 14.9 mph24.0 kmh 30.14 in1020.7 mb 0.00 in0.0 mm 0.00 in0.0 mm 0.00 in0.0 mm
06:05 PM 71.9°F22.2°C 62.7°F17.1°C 73% 9.5 mph WSW15.3 kmh WSW 14.6 mph23.5 kmh 30.14 in1020.7 mb 0.00 in0.0 mm 0.00 in0.0 mm 0.00 in0.0 mm
06:10 PM 71.3°F21.8°C 62.2°F16.8°C 73% 8.9 mph W14.3 kmh W 13.7 mph22.0 kmh 30.14 in1020.7 mb 0.00 in0.0 mm 0.00 in0.0 mm 0.00 in0.0 mm
06:15 PM 71.0°F21.7°C 61.9°F16.6°C 73% 8.9 mph W14.3 kmh W 13.7 mph22.0 kmh 30.17 in1021.7 mb 0.00 in0.0 mm 0.00 in0.0 mm 0.00 in0.0 mm
06:20 PM 70.6°F21.4°C 61.5°F16.4°C 73% 9.9 mph W15.9 kmh W 16.4 mph26.4 kmh 30.17 in1021.7 mb 0.00 in0.0 mm 0.00 in0.0 mm 0.00 in0.0 mm
06:25 PM 70.4°F21.3°C 61.7°F16.5°C 74% 9.4 mph WSW15.1 kmh WSW 16.4 mph26.4 kmh 30.17 in1021.7 mb 0.00 in0.0 mm 0.00 in0.0 mm 0.00 in0.0 mm
06:30 PM 70.4°F21.3°C 62.1°F16.7°C 75% 9.9 mph W15.9 kmh W 16.4 mph26.4 kmh 30.17 in1021.7 mb 0.00 in0.0 mm 0.00 in0.0 mm 0.00 in0.0 mm
06:35 PM 70.4°F21.3°C 62.1°F16.7°C 75% 10.5 mph WSW16.9 kmh WSW 16.4 mph26.4 kmh 30.17 in1021.7 mb 0.00 in0.0 mm 0.00 in0.0 mm 0.00 in0.0 mm
06:40 PM 70.4°F21.3°C 62.1°F16.7°C 75% 9.0 mph W14.5 kmh W 13.7 mph22.0 kmh 30.17 in1021.7 mb 0.00 in0.0 mm 0.00 in0.0 mm 0.00 in0.0 mm
06:45 PM 70.3°F21.3°C 62.3°F16.8°C 76% 9.8 mph W15.8 kmh W 13.7 mph22.0 kmh 30.17 in1021.7 mb 0.00 in0.0 mm 0.00 in0.0 mm 0.00 in0.0 mm
06:50 PM 70.1°F21.2°C 62.2°F16.8°C 76% 9.2 mph W14.8 kmh W 10.4 mph16.7 kmh 30.17 in1021.7 mb 0.00 in0.0 mm 0.00 in0.0 mm 0.00 in0.0 mm
06:55 PM 70.1°F21.2°C 62.2°F16.8°C 76% 7.6 mph W12.2 kmh W 10.4 mph16.7 kmh 30.17 in1021.7 mb 0.00 in0.0 mm 0.00 in0.0 mm 0.00 in0.0 mm
07:00 PM 69.7°F20.9°C 62.2°F16.8°C 77% 6.7 mph W10.8 kmh W 10.4 mph16.7 kmh 30.17 in1021.7 mb 0.00 in0.0 mm 0.00 in0.0 mm 0.00 in0.0 mm
07:05 PM 69.7°F20.9°C 62.2°F16.8°C 77% 7.3 mph W11.7 kmh W 9.5 mph15.3 kmh 30.17 in1021.7 mb 0.00 in0.0 mm 0.00 in0.0 mm 0.00 in0.0 mm
07:10 PM 69.5°F20.8°C 62.0°F16.7°C 77% 7.0 mph W11.3 kmh W 9.5 mph15.3 kmh 30.17 in1021.7 mb 0.00 in0.0 mm 0.00 in0.0 mm 0.00 in0.0 mm
07:15 PM 69.3°F20.7°C 61.8°F16.6°C 77% 6.9 mph W11.1 kmh W 9.5 mph15.3 kmh 30.17 in1021.7 mb 0.00 in0.0 mm 0.00 in0.0 mm 0.00 in0.0 mm
07:20 PM 69.2°F20.7°C 62.0°F16.7°C 78% 6.2 mph W10.0 kmh W 8.6 mph13.8 kmh 30.17 in1021.7 mb 0.00 in0.0 mm 0.00 in0.0 mm 0.00 in0.0 mm
07:25 PM 69.0°F20.6°C 61.8°F16.6°C 78% 7.0 mph W11.3 kmh W 11.6 mph18.7 kmh 30.17 in1021.7 mb 0.00 in0.0 mm 0.00 in0.0 mm 0.00 in0.0 mm
07:30 PM 68.4°F20.2°C 61.7°F16.5°C 79% 7.6 mph WSW12.2 kmh WSW 11.6 mph18.7 kmh 30.17 in1021.7 mb 0.00 in0.0 mm 0.00 in0.0 mm 0.00 in0.0 mm
07:35 PM 68.3°F20.2°C 61.5°F16.4°C 79% 6.5 mph W10.5 kmh W 11.6 mph18.7 kmh 30.17 in1021.7 mb 0.00 in0.0 mm 0.00 in0.0 mm 0.00 in0.0 mm
07:40 PM 68.1°F20.1°C 61.3°F16.3°C 79% 5.2 mph W8.4 kmh W 7.4 mph11.9 kmh 30.17 in1021.7 mb 0.00 in0.0 mm 0.00 in0.0 mm 0.00 in0.0 mm
07:45 PM 67.9°F19.9°C 61.2°F16.2°C 79% 6.7 mph W10.8 kmh W 10.7 mph17.2 kmh 30.17 in1021.7 mb 0.00 in0.0 mm 0.00 in0.0 mm 0.00 in0.0 mm
07:50 PM 67.7°F19.8°C 61.3°F16.3°C 80% 7.3 mph W11.7 kmh W 10.7 mph17.2 kmh 30.17 in1021.7 mb 0.00 in0.0 mm 0.00 in0.0 mm 0.00 in0.0 mm
07:55 PM 67.6°F19.8°C 61.2°F16.2°C 80% 6.4 mph WNW10.3 kmh WNW 10.7 mph17.2 kmh 30.17 in1021.7 mb 0.00 in0.0 mm 0.00 in0.0 mm 0.00 in0.0 mm
08:00 PM 67.6°F19.8°C 61.5°F16.4°C 81% 5.3 mph W8.5 kmh W 10.7 mph17.2 kmh 30.17 in1021.7 mb 0.00 in0.0 mm 0.00 in0.0 mm 0.00 in0.0 mm
08:05 PM 67.4°F19.7°C 61.3°F16.3°C 81% 5.3 mph WNW8.5 kmh WNW 9.5 mph15.3 kmh 30.17 in1021.7 mb 0.00 in0.0 mm 0.00 in0.0 mm 0.00 in0.0 mm
08:10 PM 67.2°F19.6°C 61.2°F16.2°C 81% 5.7 mph WNW9.2 kmh WNW 9.5 mph15.3 kmh 30.17 in1021.7 mb 0.00 in0.0 mm 0.00 in0.0 mm 0.00 in0.0 mm
08:15 PM 67.0°F19.4°C 61.0°F16.1°C 81% 4.7 mph W7.6 kmh W 7.1 mph11.4 kmh 30.17 in1021.7 mb 0.00 in0.0 mm 0.00 in0.0 mm 0.00 in0.0 mm
08:20 PM 67.0°F19.4°C 61.3°F16.3°C 82% 5.4 mph W8.7 kmh W 8.0 mph12.9 kmh 30.17 in1021.7 mb 0.00 in0.0 mm 0.00 in0.0 mm 0.00 in0.0 mm
08:25 PM 66.8°F19.3°C 61.2°F16.2°C 82% 6.0 mph W9.7 kmh W 8.6 mph13.8 kmh 30.17 in1021.7 mb 0.00 in0.0 mm 0.00 in0.0 mm 0.00 in0.0 mm
08:30 PM 66.7°F19.3°C 61.0°F16.1°C 82% 6.4 mph WNW10.3 kmh WNW 8.6 mph13.8 kmh 30.17 in1021.7 mb 0.00 in0.0 mm 0.00 in0.0 mm 0.00 in0.0 mm
08:35 PM 66.5°F19.2°C 61.1°F16.2°C 83% 5.5 mph W8.9 kmh W 8.3 mph13.4 kmh 30.17 in1021.7 mb 0.00 in0.0 mm 0.00 in0.0 mm 0.00 in0.0 mm
08:40 PM 66.5°F19.2°C 61.1°F16.2°C 83% 4.8 mph W7.7 kmh W 8.9 mph14.3 kmh 30.17 in1021.7 mb 0.00 in0.0 mm 0.00 in0.0 mm 0.00 in0.0 mm
08:45 PM 66.3°F19.1°C 61.3°F16.3°C 84% 4.8 mph WNW7.7 kmh WNW 8.9 mph14.3 kmh 30.20 in1022.7 mb 0.00 in0.0 mm 0.00 in0.0 mm 0.00 in0.0 mm
08:50 PM 66.3°F19.1°C 61.3°F16.3°C 84% 4.7 mph WNW7.6 kmh WNW 7.4 mph11.9 kmh 30.20 in1022.7 mb 0.00 in0.0 mm 0.00 in0.0 mm 0.00 in0.0 mm
08:55 PM 66.1°F18.9°C 61.1°F16.2°C 84% 4.9 mph WNW7.9 kmh WNW 7.1 mph11.4 kmh 30.20 in1022.7 mb 0.00 in0.0 mm 0.00 in0.0 mm 0.00 in0.0 mm
09:00 PM 66.1°F18.9°C 61.1°F16.2°C 84% 5.4 mph W8.7 kmh W 7.1 mph11.4 kmh 30.17 in1021.7 mb 0.00 in0.0 mm 0.00 in0.0 mm 0.00 in0.0 mm
09:05 PM 66.1°F18.9°C 61.5°F16.4°C 85% 6.1 mph W9.8 kmh W 7.7 mph12.4 kmh 30.17 in1021.7 mb 0.00 in0.0 mm 0.00 in0.0 mm 0.00 in0.0 mm
09:10 PM 65.9°F18.8°C 61.3°F16.3°C 85% 5.4 mph W8.7 kmh W 7.7 mph12.4 kmh 30.17 in1021.7 mb 0.00 in0.0 mm 0.00 in0.0 mm 0.00 in0.0 mm
09:15 PM 65.9°F18.8°C 61.3°F16.3°C 85% 4.6 mph W7.4 kmh W 7.7 mph12.4 kmh 30.17 in1021.7 mb 0.00 in0.0 mm 0.00 in0.0 mm 0.00 in0.0 mm
09:20 PM 65.8°F18.8°C 61.4°F16.3°C 86% 4.2 mph W6.8 kmh W 5.7 mph9.2 kmh 30.17 in1021.7 mb 0.00 in0.0 mm 0.00 in0.0 mm 0.00 in0.0 mm
09:25 PM 65.8°F18.8°C 61.4°F16.3°C 86% 4.5 mph W7.2 kmh W 8.0 mph12.9 kmh 30.17 in1021.7 mb 0.00 in0.0 mm 0.00 in0.0 mm 0.00 in0.0 mm
09:30 PM 65.8°F18.8°C 61.4°F16.3°C 86% 4.1 mph W6.6 kmh W 8.0 mph12.9 kmh 30.17 in1021.7 mb 0.00 in0.0 mm 0.00 in0.0 mm 0.00 in0.0 mm
09:35 PM 65.6°F18.7°C 61.3°F16.3°C 86% 3.9 mph WSW6.3 kmh WSW 8.3 mph13.4 kmh 30.17 in1021.7 mb 0.00 in0.0 mm 0.00 in0.0 mm 0.00 in0.0 mm
09:40 PM 65.6°F18.7°C 61.3°F16.3°C 86% 4.3 mph WSW6.9 kmh WSW 8.3 mph13.4 kmh 30.17 in1021.7 mb 0.00 in0.0 mm 0.00 in0.0 mm 0.00 in0.0 mm
09:45 PM 65.6°F18.7°C 61.6°F16.4°C 87% 3.6 mph SW5.8 kmh SW 8.3 mph13.4 kmh 30.17 in1021.7 mb 0.00 in0.0 mm 0.00 in0.0 mm 0.00 in0.0 mm
09:50 PM 65.6°F18.7°C 61.6°F16.4°C 87% 3.6 mph WSW5.8 kmh WSW 5.7 mph9.2 kmh 30.17 in1021.7 mb 0.00 in0.0 mm 0.00 in0.0 mm 0.00 in0.0 mm
09:55 PM 65.6°F18.7°C 61.6°F16.4°C 87% 5.1 mph WSW8.2 kmh WSW 8.0 mph12.9 kmh 30.17 in1021.7 mb 0.00 in0.0 mm 0.00 in0.0 mm 0.00 in0.0 mm
10:00 PM 65.4°F18.6°C 61.4°F16.3°C 87% 5.5 mph WSW8.9 kmh WSW 8.0 mph12.9 kmh 30.20 in1022.7 mb 0.00 in0.0 mm 0.00 in0.0 mm 0.00 in0.0 mm
10:05 PM 65.4°F18.6°C 61.4°F16.3°C 87% 5.3 mph WSW8.5 kmh WSW 7.4 mph11.9 kmh 30.20 in1022.7 mb 0.00 in0.0 mm 0.00 in0.0 mm 0.00 in0.0 mm
10:10 PM 65.2°F18.4°C 61.6°F16.4°C 88% 4.7 mph W7.6 kmh W 7.4 mph11.9 kmh 30.20 in1022.7 mb 0.00 in0.0 mm 0.00 in0.0 mm 0.00 in0.0 mm
10:15 PM 65.0°F18.3°C 61.4°F16.3°C 88% 4.4 mph WSW7.1 kmh WSW 5.7 mph9.2 kmh 30.17 in1021.7 mb 0.00 in0.0 mm 0.00 in0.0 mm 0.00 in0.0 mm
10:20 PM 65.0°F18.3°C 61.4°F16.3°C 88% 4.9 mph WSW7.9 kmh WSW 7.4 mph11.9 kmh 30.17 in1021.7 mb 0.00 in0.0 mm 0.00 in0.0 mm 0.00 in0.0 mm
10:25 PM 64.8°F18.2°C 61.2°F16.2°C 88% 6.1 mph W9.8 kmh W 8.9 mph14.3 kmh 30.17 in1021.7 mb 0.00 in0.0 mm 0.00 in0.0 mm 0.00 in0.0 mm
10:30 PM 64.8°F18.2°C 61.5°F16.4°C 89% 6.2 mph W10.0 kmh W 8.9 mph14.3 kmh 30.17 in1021.7 mb 0.00 in0.0 mm 0.00 in0.0 mm 0.00 in0.0 mm
10:35 PM 64.8°F18.2°C 61.5°F16.4°C 89% 5.4 mph W8.7 kmh W 8.0 mph12.9 kmh 30.17 in1021.7 mb 0.00 in0.0 mm 0.00 in0.0 mm 0.00 in0.0 mm
10:40 PM 64.8°F18.2°C 61.5°F16.4°C 89% 4.5 mph W7.2 kmh W 6.5 mph10.5 kmh 30.17 in1021.7 mb 0.00 in0.0 mm 0.00 in0.0 mm 0.00 in0.0 mm
10:45 PM 64.7°F18.2°C 61.4°F16.3°C 89% 4.6 mph W7.4 kmh W 6.5 mph10.5 kmh 30.17 in1021.7 mb 0.00 in0.0 mm 0.00 in0.0 mm 0.00 in0.0 mm
10:50 PM 64.7°F18.2°C 61.4°F16.3°C 89% 4.7 mph W7.6 kmh W 6.2 mph10.0 kmh 30.17 in1021.7 mb 0.00 in0.0 mm 0.00 in0.0 mm 0.00 in0.0 mm
10:55 PM 64.7°F18.2°C 61.4°F16.3°C 89% 4.0 mph W6.4 kmh W 5.7 mph9.2 kmh 30.17 in1021.7 mb 0.00 in0.0 mm 0.00 in0.0 mm 0.00 in0.0 mm
11:00 PM 64.7°F18.2°C 61.7°F16.5°C 90% 3.0 mph W4.8 kmh W 5.1 mph8.2 kmh 30.20 in1022.7 mb 0.00 in0.0 mm 0.00 in0.0 mm 0.00 in0.0 mm
11:05 PM 64.7°F18.2°C 61.7°F16.5°C 90% 3.4 mph W5.5 kmh W 7.4 mph11.9 kmh 30.20 in1022.7 mb 0.00 in0.0 mm 0.00 in0.0 mm 0.00 in0.0 mm
11:10 PM 64.5°F18.1°C 61.5°F16.4°C 90% 4.0 mph W6.4 kmh W 7.4 mph11.9 kmh 30.20 in1022.7 mb 0.00 in0.0 mm 0.00 in0.0 mm 0.00 in0.0 mm
11:15 PM 64.5°F18.1°C 61.5°F16.4°C 90% 3.4 mph W5.5 kmh W 5.1 mph8.2 kmh 30.20 in1022.7 mb 0.00 in0.0 mm 0.00 in0.0 mm 0.00 in0.0 mm
11:20 PM 64.5°F18.1°C 61.5°F16.4°C 90% 3.4 mph WNW5.5 kmh WNW 5.7 mph9.2 kmh 30.20 in1022.7 mb 0.00 in0.0 mm 0.00 in0.0 mm 0.00 in0.0 mm
11:25 PM 64.5°F18.1°C 61.5°F16.4°C 90% 3.2 mph W5.1 kmh W 5.7 mph9.2 kmh 30.20 in1022.7 mb 0.00 in0.0 mm 0.00 in0.0 mm 0.00 in0.0 mm
11:30 PM 64.5°F18.1°C 61.5°F16.4°C 90% 3.6 mph W5.8 kmh W 5.7 mph9.2 kmh 30.20 in1022.7 mb 0.00 in0.0 mm 0.00 in0.0 mm 0.00 in0.0 mm
11:35 PM 64.5°F18.1°C 61.5°F16.4°C 90% 3.3 mph WNW5.3 kmh WNW 5.4 mph8.7 kmh 30.20 in1022.7 mb 0.00 in0.0 mm 0.00 in0.0 mm 0.00 in0.0 mm
11:40 PM 64.5°F18.1°C 61.5°F16.4°C 90% 3.4 mph W5.5 kmh W 5.4 mph8.7 kmh 30.20 in1022.7 mb 0.00 in0.0 mm 0.00 in0.0 mm 0.00 in0.0 mm
11:45 PM 64.5°F18.1°C 61.8°F16.6°C 91% 3.6 mph W5.8 kmh W 8.3 mph13.4 kmh 30.20 in1022.7 mb 0.00 in0.0 mm 0.00 in0.0 mm 0.00 in0.0 mm
11:50 PM 64.5°F18.1°C 61.8°F16.6°C 91% 3.8 mph W6.1 kmh W 8.3 mph13.4 kmh 30.20 in1022.7 mb 0.00 in0.0 mm 0.00 in0.0 mm 0.00 in0.0 mm
11:55 PM 64.5°F18.1°C 61.8°F16.6°C 91% 3.5 mph W5.6 kmh W 8.3 mph13.4 kmh 30.20 in1022.7 mb 0.00 in0.0 mm 0.00 in0.0 mm 0.00 in0.0 mm